Time;durP1;ratioP1;P1;durP2;ratioP2;P2;SDS_P1;SDS_P2;PMS_P1;PMS_P2;Temp;Humidity;BMP_temperature;BMP_pressure;BME280_temperature;BME280_humidity;BME280_pressure;Samples;Min_cycle;Max_cycle;Signal;HPM_P1;HPM_P2
2023/01/24 00:00:42;;;;;;;3.00;2.90;;;15.80;63.70;;;;;;5091832;27;44136;-71
2023/01/24 00:03:12;;;;;;;3.27;3.17;;;15.80;63.90;;;;;;5088176;27;46057;-71
2023/01/24 00:05:40;;;;;;;3.27;3.17;;;15.80;64.00;;;;;;5099755;27;43483;-70
2023/01/24 00:08:08;;;;;;;3.10;3.00;;;15.80;63.80;;;;;;5077395;28;44139;-71
2023/01/24 00:10:36;;;;;;;3.20;3.10;;;15.80;63.90;;;;;;5077904;27;43707;-71
2023/01/24 00:13:05;;;;;;;3.40;3.30;;;15.80;64.00;;;;;;5090697;27;43969;-71
2023/01/24 00:15:33;;;;;;;3.30;3.10;;;15.80;64.00;;;;;;5080968;27;45002;-73
2023/01/24 00:18:01;;;;;;;2.93;2.83;;;15.70;63.90;;;;;;5071863;27;43418;-71
2023/01/24 00:20:29;;;;;;;2.87;2.87;;;15.70;64.00;;;;;;5100082;27;43570;-72
2023/01/24 00:22:57;;;;;;;2.97;2.87;;;15.70;64.20;;;;;;5093171;27;43767;-73
2023/01/24 00:25:24;;;;;;;3.30;3.20;;;15.80;64.10;;;;;;5098654;27;43376;-71
2023/01/24 00:27:52;;;;;;;3.20;3.10;;;15.90;63.80;;;;;;5100874;27;43907;-72
2023/01/24 00:30:22;;;;;;;3.37;3.27;;;16.00;63.40;;;;;;5098659;27;44000;-72
2023/01/24 00:32:50;;;;;;;3.00;2.90;;;16.00;63.20;;;;;;5107972;27;43744;-71
2023/01/24 00:35:17;;;;;;;3.00;2.90;;;16.00;63.40;;;;;;5097105;27;43510;-71
2023/01/24 00:37:45;;;;;;;3.30;3.20;;;15.90;63.50;;;;;;5086412;27;43443;-70
2023/01/24 00:40:13;;;;;;;2.80;2.70;;;15.90;63.70;;;;;;5104218;27;43363;-73
2023/01/24 00:42:42;;;;;;;3.47;3.37;;;15.90;63.60;;;;;;5073850;27;45791;-72
2023/01/24 00:45:10;;;;;;;3.10;3.00;;;15.90;63.70;;;;;;5085509;27;45136;-72
2023/01/24 00:47:39;;;;;;;2.93;2.83;;;15.90;63.70;;;;;;5081801;27;43402;-72
2023/01/24 00:50:08;;;;;;;3.00;2.90;;;15.90;63.80;;;;;;5101828;27;43448;-70
2023/01/24 00:52:36;;;;;;;2.70;2.70;;;15.80;63.80;;;;;;5082433;27;47033;-71
2023/01/24 00:55:05;;;;;;;3.20;3.10;;;15.80;63.90;;;;;;5103691;27;43373;-71
2023/01/24 00:57:33;;;;;;;2.60;2.60;;;15.80;64.00;;;;;;5106653;27;43488;-71
2023/01/24 01:00:01;;;;;;;3.10;3.00;;;15.80;63.80;;;;;;5080287;27;44035;-73
2023/01/24 01:02:29;;;;;;;3.10;3.00;;;15.80;64.00;;;;;;5097255;27;44025;-72
2023/01/24 01:04:58;;;;;;;3.10;3.00;;;15.80;64.00;;;;;;5102298;27;43411;-71
2023/01/24 01:07:26;;;;;;;2.73;2.73;;;15.80;64.70;;;;;;5097825;27;43918;-71
2023/01/24 01:09:54;;;;;;;3.10;3.00;;;15.80;64.00;;;;;;5107027;27;43946;-71
2023/01/24 01:12:22;;;;;;;2.80;2.80;;;15.70;63.90;;;;;;5095454;27;43840;-71
2023/01/24 01:14:50;;;;;;;2.70;2.70;;;15.70;64.20;;;;;;5077606;27;44635;-71
2023/01/24 01:17:18;;;;;;;3.37;3.27;;;15.80;64.20;;;;;;5083279;27;43803;-72
2023/01/24 01:19:46;;;;;;;3.43;3.33;;;15.80;63.90;;;;;;5087266;27;43495;-71
2023/01/24 01:22:16;;;;;;;2.80;2.77;;;15.90;63.50;;;;;;5102095;27;43705;-72
2023/01/24 01:24:44;;;;;;;3.03;2.93;;;16.00;63.50;;;;;;5103575;27;43466;-72
2023/01/24 01:27:12;;;;;;;3.13;3.03;;;15.90;63.50;;;;;;5106029;27;43478;-71
2023/01/24 01:29:40;;;;;;;3.23;3.13;;;15.90;63.60;;;;;;5075633;27;43500;-71
2023/01/24 01:32:08;;;;;;;3.10;3.00;;;15.90;63.80;;;;;;5098966;27;43919;-71
2023/01/24 01:34:36;;;;;;;2.70;2.70;;;15.80;63.60;;;;;;5098696;27;43567;-71
2023/01/24 01:37:04;;;;;;;3.13;3.03;;;15.80;63.70;;;;;;5102615;27;43458;-72
2023/01/24 01:39:33;;;;;;;3.30;3.20;;;15.80;63.80;;;;;;5101090;27;43963;-71
2023/01/24 01:42:01;;;;;;;3.13;3.03;;;15.80;63.80;;;;;;5075554;27;45925;-72
2023/01/24 01:44:40;;;;;;;3.10;3.00;;;15.80;63.80;;;;;;5078280;27;44702;-71
2023/01/24 01:47:20;;;;;;;3.10;3.00;;;15.80;64.00;;;;;;5101604;27;43417;-71
2023/01/24 01:49:50;;;;;;;2.93;2.87;;;15.70;63.90;;;;;;5103294;27;43534;-71
2023/01/24 01:52:18;;;;;;;3.03;2.93;;;15.70;63.80;;;;;;5098359;27;44018;-70
2023/01/24 01:54:47;;;;;;;2.93;2.87;;;15.80;64.00;;;;;;5098970;27;43383;-71
2023/01/24 01:57:16;;;;;;;2.83;2.73;;;15.80;64.00;;;;;;5098592;27;43410;-71
2023/01/24 01:59:46;;;;;;;3.10;3.00;;;15.70;64.00;;;;;;5102152;27;43396;-72
2023/01/24 02:02:14;;;;;;;3.10;3.00;;;15.70;63.90;;;;;;5084693;27;45954;-71
2023/01/24 02:04:46;;;;;;;2.93;2.83;;;15.70;63.90;;;;;;5102159;27;43475;-71
2023/01/24 02:07:15;;;;;;;3.00;2.90;;;15.70;64.10;;;;;;5078092;28;43434;-71
2023/01/24 02:09:44;;;;;;;2.70;2.70;;;15.70;64.30;;;;;;5080337;27;43499;-72
2023/01/24 02:12:14;;;;;;;3.27;3.17;;;15.80;64.00;;;;;;5105574;27;43603;-71
2023/01/24 02:17:27;;;;;;;3.40;3.30;;;16.00;63.20;;;;;;5099047;27;43920;-72
2023/01/24 02:20:03;;;;;;;3.20;3.10;;;16.00;63.00;;;;;;5085576;27;43454;-72
2023/01/24 02:22:35;;;;;;;3.40;3.30;;;16.00;63.20;;;;;;5100644;27;43915;-72
2023/01/24 02:25:07;;;;;;;3.10;3.00;;;15.90;63.30;;;;;;5079235;27;44719;-72
2023/01/24 02:27:36;;;;;;;2.93;2.87;;;15.90;63.60;;;;;;5097511;27;43460;-72
2023/01/24 02:30:05;;;;;;;3.00;2.90;;;15.90;63.30;;;;;;5096283;27;44127;-72
2023/01/24 02:32:34;;;;;;;2.63;2.63;;;15.90;63.60;;;;;;5085266;27;44114;-72
2023/01/24 02:35:02;;;;;;;2.97;2.90;;;15.80;63.60;;;;;;5060331;28;43547;-71
2023/01/24 02:37:31;;;;;;;3.00;2.90;;;15.80;63.70;;;;;;5057496;28;43457;-72
2023/01/24 02:40:00;;;;;;;2.90;2.80;;;15.80;63.90;;;;;;5056841;28;43378;-72
2023/01/24 02:42:31;;;;;;;3.07;2.97;;;15.80;64.00;;;;;;5052632;28;43828;-72
2023/01/24 02:45:05;;;;;;;3.17;3.07;;;15.80;64.00;;;;;;5052154;28;43428;-71
2023/01/24 02:47:35;;;;;;;2.90;2.80;;;15.80;64.10;;;;;;5058265;28;43405;-70
2023/01/24 02:50:04;;;;;;;3.20;3.10;;;15.70;63.90;;;;;;5057701;28;43419;-71
2023/01/24 02:55:17;;;;;;;2.80;2.80;;;15.70;64.00;;;;;;5045777;28;43455;-72
2023/01/24 02:58:05;;;;;;;3.13;3.03;;;15.70;64.00;;;;;;5054905;28;44064;-70
2023/01/24 03:00:38;;;;;;;2.83;2.73;;;15.70;64.10;;;;;;5060032;28;43602;-71
2023/01/24 03:03:08;;;;;;;2.90;2.80;;;15.70;65.00;;;;;;5050896;28;43822;-72
2023/01/24 03:05:56;;;;;;;2.67;2.67;;;15.80;64.00;;;;;;5057352;28;44773;-72
2023/01/24 03:08:31;;;;;;;2.80;2.80;;;15.90;63.70;;;;;;5050073;28;43743;-71
2023/01/24 03:11:00;;;;;;;2.90;2.80;;;16.00;63.40;;;;;;5057829;28;43433;-71
2023/01/24 03:35:40;;;;;;;3.20;3.10;;;15.70;64.00;;;;;;5063582;28;44031;-70
2023/01/24 03:40:54;;;;;;;2.70;2.70;;;15.70;64.00;;;;;;5070939;28;43754;-71
2023/01/24 03:43:22;;;;;;;3.10;3.00;;;15.70;63.90;;;;;;5075422;28;43642;-71
2023/01/24 03:45:52;;;;;;;2.60;2.53;;;15.70;63.90;;;;;;5067455;28;45306;-72
2023/01/24 03:48:36;;;;;;;3.20;3.00;;;15.70;64.10;;;;;;5068268;28;43498;-69
2023/01/24 03:53:51;;;;;;;3.10;3.00;;;15.70;64.20;;;;;;5080598;28;43512;-71
2023/01/24 03:56:23;;;;;;;2.97;2.87;;;15.70;64.40;;;;;;5079119;28;43902;-71
2023/01/24 03:58:57;;;;;;;2.63;2.63;;;15.80;64.00;;;;;;5078932;28;43415;-71
2023/01/24 04:01:28;;;;;;;3.07;2.80;;;15.90;63.70;;;;;;5081086;28;44123;-71
2023/01/24 04:04:03;;;;;;;3.23;3.13;;;15.90;63.40;;;;;;5079072;28;43518;-71
2023/01/24 04:06:31;;;;;;;3.00;2.90;;;15.90;63.60;;;;;;5071803;28;45823;-71
2023/01/24 04:09:01;;;;;;;3.00;2.90;;;15.90;63.70;;;;;;5076183;28;43418;-71
2023/01/24 04:11:30;;;;;;;3.10;3.00;;;15.80;63.80;;;;;;5072490;28;43750;-70
2023/01/24 04:14:05;;;;;;;3.10;3.00;;;15.80;64.00;;;;;;5084206;28;43439;-71
2023/01/24 04:16:35;;;;;;;2.70;2.70;;;15.80;63.70;;;;;;5076113;28;43922;-70
2023/01/24 04:19:25;;;;;;;2.57;2.57;;;15.80;64.00;;;;;;5073195;28;43461;-72
2023/01/24 04:21:53;;;;;;;3.07;2.97;;;15.70;63.90;;;;;;5078305;28;43988;-71
2023/01/24 04:24:21;;;;;;;2.73;2.70;;;15.70;63.90;;;;;;5076744;28;43554;-71
2023/01/24 04:26:49;;;;;;;3.00;3.00;;;15.70;64.00;;;;;;5083670;28;45643;-71
2023/01/24 04:29:25;;;;;;;2.53;2.53;;;15.70;64.20;;;;;;5080572;28;44659;-71
2023/01/24 04:31:56;;;;;;;2.70;2.60;;;15.60;64.00;;;;;;5084629;28;43463;-70
2023/01/24 04:34:42;;;;;;;2.50;2.50;;;15.70;64.10;;;;;;5060481;28;43535;-72
2023/01/24 04:37:18;;;;;;;2.60;2.60;;;15.60;64.10;;;;;;5066109;28;43851;-70
2023/01/24 04:39:46;;;;;;;2.70;2.70;;;15.70;64.30;;;;;;5064320;28;43476;-71
2023/01/24 04:42:17;;;;;;;2.73;2.73;;;15.60;64.30;;;;;;5062434;28;44015;-71
2023/01/24 04:44:46;;;;;;;2.60;2.60;;;15.60;64.30;;;;;;5066378;28;43570;-71
2023/01/24 04:47:14;;;;;;;2.77;2.67;;;15.60;64.50;;;;;;5060239;28;45651;-72
2023/01/24 04:49:45;;;;;;;2.87;2.77;;;15.60;64.60;;;;;;5066185;28;43410;-71
2023/01/24 04:52:18;;;;;;;3.07;2.97;;;15.70;64.40;;;;;;5065926;28;43451;-70
2023/01/24 04:54:56;;;;;;;3.17;3.07;;;15.80;64.00;;;;;;5067039;28;43431;-71
2023/01/24 04:57:24;;;;;;;3.43;3.30;;;15.90;63.60;;;;;;5065997;28;43898;-71
2023/01/24 04:59:52;;;;;;;3.20;3.00;;;15.90;63.60;;;;;;5065667;28;44693;-70
2023/01/24 05:02:21;;;;;;;3.83;3.63;;;15.80;63.70;;;;;;5061271;28;43486;-71
2023/01/24 05:04:50;;;;;;;4.00;3.80;;;15.80;64.60;;;;;;5066215;28;43488;-72
2023/01/24 05:07:18;;;;;;;3.80;3.50;;;15.80;64.00;;;;;;5067738;28;45035;-72
2023/01/24 05:09:53;;;;;;;3.73;3.47;;;15.70;63.80;;;;;;5064564;28;43446;-69
2023/01/24 05:12:22;;;;;;;4.07;3.60;;;15.70;63.90;;;;;;5065260;28;43957;-71
2023/01/24 05:14:50;;;;;;;3.77;3.53;;;15.70;63.90;;;;;;5062123;28;44108;-71
2023/01/24 05:17:18;;;;;;;4.23;3.80;;;15.70;63.90;;;;;;5065347;28;46213;-72
2023/01/24 05:19:47;;;;;;;5.27;4.23;;;15.70;63.90;;;;;;5065986;28;43444;-70
2023/01/24 05:22:16;;;;;;;4.53;4.13;;;15.60;63.90;;;;;;5065507;28;43990;-71
2023/01/24 05:24:44;;;;;;;4.10;3.80;;;15.60;64.00;;;;;;5066068;28;43980;-71
2023/01/24 05:27:12;;;;;;;4.10;3.77;;;15.70;63.90;;;;;;5058719;28;46019;-73
2023/01/24 05:29:44;;;;;;;4.57;4.17;;;15.70;63.90;;;;;;5063691;28;44222;-71
2023/01/24 05:32:13;;;;;;;4.67;4.17;;;15.70;63.90;;;;;;5061289;28;43949;-71
2023/01/24 05:34:41;;;;;;;4.43;3.97;;;15.70;63.90;;;;;;5059413;28;43530;-71
2023/01/24 05:37:09;;;;;;;4.57;4.27;;;15.70;63.90;;;;;;5078937;28;43801;-71
2023/01/24 05:39:43;;;;;;;5.70;4.50;;;15.70;63.90;;;;;;5083659;28;45041;-71
2023/01/24 05:42:11;;;;;;;6.17;4.47;;;15.70;64.30;;;;;;5070047;28;43377;-72
2023/01/24 05:44:48;;;;;;;5.17;4.53;;;15.70;64.00;;;;;;5076568;28;43594;-71
2023/01/24 05:47:16;;;;;;;4.70;4.27;;;15.80;63.70;;;;;;5079945;28;46661;-72
2023/01/24 05:49:46;;;;;;;4.47;4.17;;;15.90;63.40;;;;;;5083717;28;43434;-72
2023/01/24 05:52:18;;;;;;;4.60;4.20;;;15.90;63.50;;;;;;5081519;28;43416;-71
2023/01/24 05:54:56;;;;;;;4.80;4.37;;;15.80;63.50;;;;;;5083273;28;43434;-71
2023/01/24 05:57:36;;;;;;;5.37;4.70;;;15.80;63.70;;;;;;5067391;28;43852;-72
2023/01/24 06:00:20;;;;;;;5.23;4.83;;;15.70;63.90;;;;;;5078294;28;43906;-72
2023/01/24 06:03:14;;;;;;;4.23;3.83;;;15.70;63.70;;;;;;5073688;28;43428;-72
2023/01/24 06:05:46;;;;;;;4.57;4.27;;;15.70;63.80;;;;;;5076276;28;43501;-72
2023/01/24 06:08:14;;;;;;;4.47;4.17;;;15.70;63.80;;;;;;5065530;28;46015;-72
2023/01/24 06:10:45;;;;;;;4.27;3.90;;;15.70;63.90;;;;;;5078951;28;43475;-71
2023/01/24 06:13:13;;;;;;;4.10;3.90;;;15.70;63.90;;;;;;5077209;28;43431;-71
2023/01/24 06:15:41;;;;;;;4.40;4.03;;;15.70;63.90;;;;;;5081180;28;43529;-72
2023/01/24 06:18:14;;;;;;;4.50;4.10;;;15.70;64.10;;;;;;5077460;28;43867;-72
2023/01/24 06:20:44;;;;;;;4.80;4.40;;;15.70;63.90;;;;;;5076838;27;43454;-72
2023/01/24 06:23:19;;;;;;;4.70;4.13;;;15.70;63.90;;;;;;5079901;28;43383;-72
2023/01/24 06:25:49;;;;;;;4.30;4.00;;;15.70;63.90;;;;;;5080105;28;43511;-71
2023/01/24 06:28:17;;;;;;;4.27;3.97;;;15.70;64.00;;;;;;5078811;27;43551;-70
2023/01/24 06:30:46;;;;;;;5.20;3.90;;;15.70;64.00;;;;;;5073324;28;43584;-71
2023/01/24 06:33:25;;;;;;;4.93;4.43;;;15.70;64.00;;;;;;5078250;28;43467;-72
2023/01/24 06:36:05;;;;;;;4.93;4.17;;;15.70;64.10;;;;;;5089822;27;43461;-71
2023/01/24 06:38:34;;;;;;;4.73;4.37;;;15.70;64.10;;;;;;5103163;27;43937;-71
2023/01/24 06:41:04;;;;;;;4.87;4.47;;;15.80;63.80;;;;;;5092720;27;43481;-72
2023/01/24 06:43:32;;;;;;;4.50;4.10;;;16.00;63.40;;;;;;5081967;27;43448;-72
2023/01/24 06:46:00;;;;;;;4.10;3.80;;;16.00;63.00;;;;;;5097378;27;43808;-71
2023/01/24 06:48:28;;;;;;;4.37;4.07;;;16.00;63.00;;;;;;5073027;27;45418;-70
2023/01/24 06:50:56;;;;;;;4.30;4.00;;;16.00;63.20;;;;;;5087823;27;43378;-72
2023/01/24 06:53:24;;;;;;;4.23;3.93;;;15.90;63.40;;;;;;5098630;27;43485;-70
2023/01/24 06:55:52;;;;;;;4.53;4.13;;;15.90;63.30;;;;;;5100469;27;43410;-71
2023/01/24 06:58:21;;;;;;;4.27;3.97;;;15.90;63.30;;;;;;5098637;27;43907;-72
2023/01/24 07:00:49;;;;;;;4.90;4.50;;;15.90;63.50;;;;;;5103535;27;43420;-70
2023/01/24 07:03:17;;;;;;;4.30;4.00;;;15.90;63.50;;;;;;5102540;27;44029;-71
2023/01/24 07:05:45;;;;;;;4.27;3.97;;;15.80;63.50;;;;;;5101380;27;43430;-71
2023/01/24 07:08:13;;;;;;;4.43;4.17;;;15.80;63.60;;;;;;5099566;27;43987;-71
2023/01/24 07:10:47;;;;;;;4.13;3.80;;;15.80;63.90;;;;;;5094419;27;43455;-72
2023/01/24 07:13:15;;;;;;;4.27;3.97;;;15.70;63.60;;;;;;5099681;27;43394;-71
2023/01/24 07:15:44;;;;;;;4.37;4.07;;;15.70;63.70;;;;;;5086296;27;43439;-71
2023/01/24 07:18:13;;;;;;;4.00;3.70;;;15.70;63.60;;;;;;5097739;27;43841;-71
2023/01/24 07:20:41;;;;;;;3.70;3.50;;;15.70;63.80;;;;;;5086721;27;44664;-72
2023/01/24 07:23:17;;;;;;;4.27;4.00;;;15.70;63.80;;;;;;5098971;27;44065;-71
2023/01/24 07:25:45;;;;;;;4.40;4.10;;;15.70;63.80;;;;;;5098233;27;43484;-71
2023/01/24 07:28:14;;;;;;;4.37;4.03;;;15.70;63.90;;;;;;5096047;27;43911;-73
2023/01/24 07:30:42;;;;;;;3.93;3.73;;;15.70;64.10;;;;;;5100022;27;43717;-71
2023/01/24 07:33:11;;;;;;;3.97;3.70;;;15.80;63.80;;;;;;5099181;27;43480;-72
2023/01/24 07:35:39;;;;;;;4.27;3.97;;;15.90;63.30;;;;;;5097915;27;43459;-72
2023/01/24 07:38:07;;;;;;;4.00;3.80;;;15.90;63.10;;;;;;5097972;27;43925;-71
2023/01/24 07:40:36;;;;;;;3.93;3.67;;;15.90;63.10;;;;;;5100675;27;43426;-72
2023/01/24 07:43:04;;;;;;;3.83;3.57;;;15.90;63.30;;;;;;5103323;27;43562;-70
2023/01/24 07:45:34;;;;;;;4.10;3.77;;;15.80;63.40;;;;;;5106155;27;43522;-71
2023/01/24 07:48:02;;;;;;;4.47;4.17;;;15.80;63.50;;;;;;5104084;27;43641;-71
2023/01/24 07:50:32;;;;;;;4.20;3.90;;;15.80;63.30;;;;;;5105128;27;43745;-70
2023/01/24 07:53:00;;;;;;;4.17;3.87;;;15.80;63.40;;;;;;5108118;27;43476;-71
2023/01/24 07:55:28;;;;;;;4.07;3.87;;;15.80;63.50;;;;;;5105548;27;43301;-71
2023/01/24 07:57:59;;;;;;;3.70;3.50;;;15.80;63.50;;;;;;5107983;27;44350;-72
2023/01/24 08:00:27;;;;;;;4.30;3.90;;;15.80;63.60;;;;;;5106717;27;43425;-71
2023/01/24 08:02:55;;;;;;;4.00;3.70;;;15.70;63.70;;;;;;5086684;27;43967;-70
2023/01/24 08:05:23;;;;;;;4.17;3.97;;;15.70;63.90;;;;;;5102844;27;43479;-71
2023/01/24 08:07:54;;;;;;;4.03;3.83;;;15.80;63.70;;;;;;5100679;27;43899;-72
2023/01/24 08:10:22;;;;;;;3.90;3.70;;;15.90;63.30;;;;;;5099394;27;43490;-71
2023/01/24 08:12:51;;;;;;;3.97;3.77;;;15.80;63.20;;;;;;5109283;27;43452;-72
2023/01/24 08:15:18;;;;;;;3.80;3.53;;;15.90;63.40;;;;;;5099887;27;43522;-71
2023/01/24 08:17:46;;;;;;;4.20;3.90;;;15.80;63.30;;;;;;5103403;27;43897;-72
2023/01/24 08:20:15;;;;;;;4.00;3.80;;;15.80;63.50;;;;;;5103912;27;43416;-71
2023/01/24 08:22:43;;;;;;;4.47;4.17;;;15.80;63.80;;;;;;5092073;27;43917;-71
2023/01/24 08:25:26;;;;;;;4.43;4.20;;;15.80;63.50;;;;;;5104922;27;44079;-71
2023/01/24 08:27:54;;;;;;;3.70;3.50;;;15.80;63.60;;;;;;5092900;27;43902;-71
2023/01/24 08:30:22;;;;;;;4.00;3.80;;;15.80;63.60;;;;;;5080147;27;44761;-71
2023/01/24 08:32:59;;;;;;;4.10;3.90;;;15.80;63.70;;;;;;5093383;27;43521;-71
2023/01/24 08:35:27;;;;;;;4.03;3.83;;;15.70;63.60;;;;;;5097448;27;43450;-71
2023/01/24 08:37:55;;;;;;;3.67;3.47;;;15.70;63.80;;;;;;5105543;27;43619;-70
2023/01/24 08:40:23;;;;;;;4.00;3.80;;;15.70;64.00;;;;;;5107446;27;43500;-71
2023/01/24 08:42:53;;;;;;;3.97;3.77;;;15.80;64.10;;;;;;5099286;27;43363;-71
2023/01/24 08:45:21;;;;;;;4.00;3.80;;;15.90;63.50;;;;;;5086013;27;44264;-71
2023/01/24 08:47:52;;;;;;;4.20;3.90;;;15.90;63.10;;;;;;5097052;27;44040;-71
2023/01/24 08:50:20;;;;;;;4.30;4.00;;;15.90;63.00;;;;;;5094997;27;43424;-71
2023/01/24 08:52:49;;;;;;;4.10;3.90;;;15.90;63.10;;;;;;5099130;27;43821;-72
2023/01/24 08:55:17;;;;;;;3.60;3.50;;;15.90;63.90;;;;;;5075991;27;43703;-70
2023/01/24 08:57:44;;;;;;;3.87;3.67;;;15.80;63.50;;;;;;5105151;27;43600;-71
2023/01/24 09:00:15;;;;;;;4.00;3.80;;;15.80;63.30;;;;;;5102216;27;43462;-71
2023/01/24 09:02:43;;;;;;;3.60;3.50;;;15.80;63.30;;;;;;5093444;27;43766;-71
2023/01/24 09:05:11;;;;;;;3.60;3.50;;;15.80;63.50;;;;;;5103058;27;43377;-70
2023/01/24 09:07:41;;;;;;;3.93;3.80;;;15.80;63.50;;;;;;5082015;27;46092;-70
2023/01/24 09:10:10;;;;;;;3.97;3.77;;;15.80;63.60;;;;;;5103657;27;43503;-72
2023/01/24 09:12:38;;;;;;;4.07;3.77;;;15.80;63.70;;;;;;5081450;27;43403;-71
2023/01/24 09:15:07;;;;;;;4.00;3.80;;;15.70;63.90;;;;;;5093783;27;43973;-71
2023/01/24 09:17:37;;;;;;;3.77;3.57;;;15.70;64.30;;;;;;5078359;27;45861;-70
2023/01/24 09:20:06;;;;;;;3.70;3.60;;;15.70;63.70;;;;;;5101184;27;43449;-70
2023/01/24 09:22:34;;;;;;;3.90;3.70;;;15.70;63.60;;;;;;5098571;27;43397;-70
2023/01/24 09:25:03;;;;;;;3.73;3.53;;;15.70;63.60;;;;;;5101425;27;43503;-73
2023/01/24 09:27:31;;;;;;;4.40;4.10;;;15.70;63.70;;;;;;5101843;27;43908;-72
2023/01/24 09:29:59;;;;;;;4.00;3.80;;;15.70;63.70;;;;;;5100199;27;44003;-72
2023/01/24 09:32:28;;;;;;;3.87;3.67;;;15.70;63.90;;;;;;5104164;27;43371;-71
2023/01/24 09:34:57;;;;;;;4.20;4.00;;;15.70;64.10;;;;;;5091851;27;43501;-71
2023/01/24 09:37:26;;;;;;;3.90;3.70;;;15.80;63.90;;;;;;5102560;27;43815;-70
2023/01/24 09:39:55;;;;;;;4.00;3.80;;;15.90;63.40;;;;;;5100917;27;43391;-70
2023/01/24 09:42:28;;;;;;;3.80;3.70;;;15.90;63.00;;;;;;5098720;27;43433;-71
2023/01/24 09:44:59;;;;;;;3.43;3.33;;;16.00;63.10;;;;;;5082255;27;43570;-70
2023/01/24 09:47:31;;;;;;;4.17;3.97;;;15.90;63.20;;;;;;5099905;27;44034;-72
2023/01/24 09:50:02;;;;;;;3.50;3.30;;;15.80;63.20;;;;;;5102681;27;44386;-71
2023/01/24 09:52:32;;;;;;;3.63;3.50;;;15.90;63.50;;;;;;5078760;28;43541;-71
2023/01/24 09:55:03;;;;;;;3.53;3.43;;;15.90;63.40;;;;;;5086257;27;43411;-70
2023/01/24 09:57:35;;;;;;;3.30;3.20;;;15.90;63.60;;;;;;5094997;27;43919;-73
2023/01/24 10:00:05;;;;;;;3.90;3.80;;;15.80;63.40;;;;;;5093699;27;43463;-72
2023/01/24 10:02:33;;;;;;;3.60;3.40;;;15.80;63.50;;;;;;5087146;27;43571;-72
2023/01/24 10:05:03;;;;;;;4.00;3.80;;;15.70;63.60;;;;;;5092923;27;44062;-71
2023/01/24 10:07:42;;;;;;;3.70;3.50;;;15.70;63.80;;;;;;5101635;27;43961;-72
2023/01/24 10:10:17;;;;;;;3.47;3.37;;;15.70;63.70;;;;;;5105191;27;43424;-70
2023/01/24 10:12:51;;;;;;;3.50;3.40;;;15.70;63.80;;;;;;5102811;27;43996;-72
2023/01/24 10:15:27;;;;;;;3.57;3.40;;;15.70;63.90;;;;;;5084884;27;43572;-71
2023/01/24 10:18:04;;;;;;;3.53;3.43;;;15.70;63.80;;;;;;5097478;27;43757;-70
2023/01/24 10:20:50;;;;;;;3.63;3.50;;;15.70;63.90;;;;;;5100363;27;43466;-72
2023/01/24 10:23:18;;;;;;;3.57;3.47;;;15.70;63.90;;;;;;5092755;27;43394;-71
2023/01/24 10:25:51;;;;;;;3.43;3.33;;;15.60;64.00;;;;;;5101567;27;43434;-70
2023/01/24 10:28:23;;;;;;;3.90;3.70;;;15.70;64.10;;;;;;5100730;27;43901;-71
2023/01/24 10:30:56;;;;;;;3.40;3.30;;;15.80;63.80;;;;;;5100093;27;43434;-72
2023/01/24 10:33:27;;;;;;;3.93;3.83;;;15.90;63.40;;;;;;5099919;27;43463;-71
2023/01/24 10:35:57;;;;;;;3.30;3.20;;;15.90;63.10;;;;;;5104403;27;43515;-71
2023/01/24 10:38:25;;;;;;;3.30;3.20;;;15.90;63.20;;;;;;5098613;27;43611;-70
2023/01/24 10:40:54;;;;;;;3.40;3.30;;;15.90;63.30;;;;;;5096014;27;43822;-71
2023/01/24 10:43:24;;;;;;;3.97;3.77;;;15.80;63.50;;;;;;5099794;27;43995;-70
2023/01/24 10:46:00;;;;;;;3.27;3.17;;;15.80;63.50;;;;;;5098798;27;43381;-70
2023/01/24 10:48:36;;;;;;;3.63;3.53;;;15.80;63.50;;;;;;5087666;27;43611;-73
2023/01/24 10:51:15;;;;;;;3.67;3.50;;;15.80;63.60;;;;;;5092925;27;43981;-70
2023/01/24 10:53:43;;;;;;;3.00;2.90;;;15.80;63.70;;;;;;5099068;27;43531;-72
2023/01/24 10:56:11;;;;;;;3.50;3.37;;;15.70;63.60;;;;;;5083873;27;44076;-71
2023/01/24 10:58:41;;;;;;;3.60;3.50;;;15.70;63.80;;;;;;5102182;27;43612;-71
2023/01/24 11:01:17;;;;;;;3.53;3.43;;;15.70;64.70;;;;;;5104330;27;43483;-71
2023/01/24 11:03:45;;;;;;;3.13;3.03;;;15.70;63.80;;;;;;5101651;27;43411;-71
2023/01/24 11:06:32;;;;;;;3.30;3.17;;;15.70;63.90;;;;;;5097914;27;43740;-70
2023/01/24 11:09:03;;;;;;;3.23;3.13;;;15.70;64.00;;;;;;5091026;27;43927;-71
2023/01/24 11:11:32;;;;;;;3.47;3.37;;;15.70;63.90;;;;;;5076909;27;44781;-70
2023/01/24 11:14:01;;;;;;;3.50;3.40;;;15.70;63.90;;;;;;5098045;27;43374;-71
2023/01/24 11:16:31;;;;;;;3.50;3.40;;;15.70;64.10;;;;;;5080438;27;44025;-71
2023/01/24 11:19:00;;;;;;;3.70;3.60;;;15.60;64.20;;;;;;5095003;27;43897;-71
2023/01/24 11:21:32;;;;;;;3.40;3.30;;;15.70;64.20;;;;;;5095763;27;43482;-72
2023/01/24 11:24:01;;;;;;;3.30;3.20;;;15.80;63.90;;;;;;5096271;27;43404;-72
2023/01/24 11:26:30;;;;;;;3.17;3.07;;;15.90;63.40;;;;;;5099778;27;43471;-71
2023/01/24 11:29:00;;;;;;;3.30;3.20;;;15.80;63.30;;;;;;5103823;27;43935;-71
2023/01/24 11:31:33;;;;;;;3.70;3.50;;;15.80;63.40;;;;;;5096117;27;43437;-71
2023/01/24 11:34:24;;;;;;;3.47;3.37;;;15.80;63.50;;;;;;5087502;27;43966;-70
2023/01/24 11:37:00;;;;;;;3.33;3.23;;;15.80;63.90;;;;;;5077406;27;43611;-71
2023/01/24 11:39:36;;;;;;;3.17;3.07;;;15.70;63.60;;;;;;5091704;27;43960;-72
2023/01/24 11:42:07;;;;;;;3.10;3.00;;;15.80;63.80;;;;;;5081069;27;45109;-71
2023/01/24 11:44:55;;;;;;;3.00;2.90;;;15.70;63.80;;;;;;5078753;27;43527;-71
2023/01/24 11:47:24;;;;;;;3.20;3.10;;;15.70;63.80;;;;;;5102190;27;43471;-71
2023/01/24 11:50:17;;;;;;;2.80;2.70;;;15.70;64.00;;;;;;5095512;27;43984;-72
2023/01/24 11:53:09;;;;;;;3.43;3.33;;;15.60;63.80;;;;;;5059169;27;43463;-71
2023/01/24 11:55:41;;;;;;;3.40;3.30;;;15.70;64.30;;;;;;5103597;27;43367;-71
2023/01/24 11:58:19;;;;;;;3.10;3.00;;;15.70;63.90;;;;;;5100493;27;43446;-72
2023/01/24 12:00:50;;;;;;;3.07;2.97;;;15.80;63.60;;;;;;5101633;27;44037;-70
2023/01/24 12:03:34;;;;;;;3.20;3.10;;;15.90;63.40;;;;;;5084226;27;44313;-71
2023/01/24 12:06:09;;;;;;;3.20;3.10;;;15.90;63.40;;;;;;5093107;27;43462;-71
2023/01/24 12:08:50;;;;;;;3.10;3.00;;;15.80;63.50;;;;;;5103501;27;43429;-71
2023/01/24 12:11:21;;;;;;;3.00;2.90;;;15.80;63.70;;;;;;5096670;27;43627;-70
2023/01/24 12:14:16;;;;;;;3.10;3.00;;;15.80;64.00;;;;;;5101634;27;43350;-72
2023/01/24 12:16:52;;;;;;;2.90;2.80;;;15.80;63.70;;;;;;5099250;27;43339;-72
2023/01/24 12:19:48;;;;;;;3.20;3.10;;;15.70;63.80;;;;;;5102774;27;43409;-72
2023/01/24 12:22:17;;;;;;;2.70;2.70;;;15.70;63.80;;;;;;5086403;27;45861;-71
2023/01/24 12:24:49;;;;;;;3.07;2.97;;;15.70;63.90;;;;;;5102567;27;44042;-72
2023/01/24 12:27:18;;;;;;;3.20;3.10;;;15.70;63.90;;;;;;5101942;27;43415;-71
2023/01/24 12:29:49;;;;;;;3.10;3.00;;;15.70;64.10;;;;;;5100526;27;43383;-71
2023/01/24 12:32:21;;;;;;;3.00;2.90;;;15.60;64.00;;;;;;5099052;27;43610;-70
2023/01/24 12:34:51;;;;;;;3.03;2.93;;;15.60;63.90;;;;;;5101725;27;43987;-70
2023/01/24 12:37:25;;;;;;;3.20;3.10;;;15.70;64.20;;;;;;5089154;27;43406;-72
2023/01/24 12:40:00;;;;;;;3.00;2.90;;;15.60;64.00;;;;;;5104514;27;43592;-71
2023/01/24 12:42:48;;;;;;;3.37;3.27;;;15.60;64.00;;;;;;5076350;27;45756;-71
2023/01/24 12:45:20;;;;;;;2.73;2.70;;;15.60;64.00;;;;;;5101747;27;44123;-71
2023/01/24 12:47:49;;;;;;;3.10;3.00;;;15.60;64.30;;;;;;5105689;27;43339;-71
2023/01/24 12:50:21;;;;;;;2.90;2.80;;;15.60;64.00;;;;;;5085617;27;43455;-72
2023/01/24 12:52:55;;;;;;;2.93;2.83;;;15.60;64.10;;;;;;5106523;27;43744;-71
2023/01/24 12:55:25;;;;;;;3.13;3.03;;;15.60;64.10;;;;;;5108066;27;43383;-71
2023/01/24 12:57:57;;;;;;;2.67;2.63;;;15.60;64.10;;;;;;5099862;27;43796;-71
2023/01/24 13:00:25;;;;;;;3.33;3.23;;;15.60;64.10;;;;;;5104896;27;43454;-71
2023/01/24 13:03:22;;;;;;;2.80;2.80;;;15.60;64.20;;;;;;5104463;27;43835;-71
2023/01/24 13:05:53;;;;;;;2.97;2.87;;;15.60;64.40;;;;;;5104862;27;43412;-71
2023/01/24 13:08:28;;;;;;;3.30;3.20;;;15.70;64.30;;;;;;5100877;27;43379;-71
2023/01/24 13:11:05;;;;;;;3.30;3.20;;;15.80;64.10;;;;;;5079306;27;43464;-72
2023/01/24 13:13:34;;;;;;;2.70;2.70;;;15.90;63.40;;;;;;5096485;27;43606;-71
2023/01/24 13:16:21;;;;;;;2.80;2.70;;;15.90;63.10;;;;;;5101587;27;43937;-71
2023/01/24 13:18:55;;;;;;;2.57;2.57;;;15.90;63.80;;;;;;5077929;28;43419;-70
2023/01/24 13:21:25;;;;;;;2.87;2.87;;;15.90;63.30;;;;;;5072175;27;43424;-71
2023/01/24 13:24:03;;;;;;;3.20;3.10;;;15.80;63.60;;;;;;5070993;27;45312;-71
2023/01/24 13:26:50;;;;;;;3.10;3.00;;;15.80;63.50;;;;;;5081031;27;43480;-71
2023/01/24 13:29:37;;;;;;;2.60;2.60;;;15.80;63.50;;;;;;5098411;27;43590;-71
2023/01/24 13:32:07;;;;;;;2.67;2.67;;;15.80;63.70;;;;;;5093183;27;43573;-71
2023/01/24 13:34:37;;;;;;;2.73;2.63;;;15.70;63.70;;;;;;5093374;27;44006;-71
2023/01/24 13:37:05;;;;;;;2.97;2.87;;;15.70;63.90;;;;;;5084989;27;44665;-71
2023/01/24 13:39:35;;;;;;;3.23;3.13;;;15.70;63.90;;;;;;5098973;27;43915;-71
2023/01/24 13:42:06;;;;;;;3.00;2.90;;;15.60;64.00;;;;;;5096733;27;43458;-71